Time,TemperatureF,DewpointF,PressureIn,WindDirection,WindDirectionDegrees,WindSpeedMPH,WindSpeedGustMPH,Humidity,HourlyPrecipIn,Conditions,Clouds,dailyrainin,SoftwareType,DateUTC
2013-04-16 19:22:00,54.0,44.0,30.18,SSW,202,0.0,8.0,70,0.00,,,0.00,,2013-04-16 23:22:00,
2013-04-16 19:32:00,54.0,45.0,30.18,South,180,9.0,10.0,71,0.00,,,0.00,,2013-04-16 23:32:00,
2013-04-16 19:43:00,54.0,45.0,30.18,South,180,9.0,10.0,71,0.00,,,0.00,,2013-04-16 23:43:00,
2013-04-16 19:52:00,54.0,45.0,30.18,SSW,202,7.0,11.0,71,0.00,,,0.00,,2013-04-16 23:52:00,
2013-04-16 20:02:00,53.0,45.0,30.18,SSW,202,2.0,6.0,73,0.00,,,0.00,,2013-04-17 00:02:00,
2013-04-16 20:12:00,53.0,45.0,30.18,SSW,202,2.0,6.0,73,0.00,,,0.00,,2013-04-17 00:12:00,
2013-04-16 20:22:00,53.0,45.0,30.18,SSW,202,0.0,6.0,73,0.00,,,0.00,,2013-04-17 00:22:00,
2013-04-16 20:32:00,53.0,45.0,30.18,SW,225,6.0,9.0,74,0.00,,,0.00,,2013-04-17 00:32:00,
2013-04-16 20:42:00,53.0,45.0,30.18,SW,225,6.0,9.0,74,0.00,,,0.00,,2013-04-17 00:42:00,
2013-04-16 20:52:00,53.0,45.0,30.18,SSW,202,0.0,6.0,74,0.00,,,0.00,,2013-04-17 00:52:00,
2013-04-16 21:02:00,53.0,46.0,30.18,South,180,0.0,7.0,76,0.00,,,0.00,,2013-04-17 01:02:00,
2013-04-16 21:12:00,53.0,46.0,30.18,South,180,0.0,7.0,76,0.00,,,0.00,,2013-04-17 01:12:00,
2013-04-16 21:22:00,53.0,46.0,30.18,South,180,3.0,9.0,76,0.00,,,0.00,,2013-04-17 01:22:00,
2013-04-16 21:32:00,53.0,46.0,30.18,South,180,0.0,5.0,76,0.00,,,0.00,,2013-04-17 01:32:00,
2013-04-16 21:42:00,53.0,46.0,30.18,South,180,0.0,5.0,76,0.00,,,0.00,,2013-04-17 01:42:00,
2013-04-16 21:52:00,53.0,46.0,30.18,South,180,0.0,5.0,76,0.00,,,0.00,,2013-04-17 01:52:00,
2013-04-16 22:02:00,53.0,46.0,30.18,SSW,202,0.0,6.0,76,0.00,,,0.00,,2013-04-17 02:02:00,
2013-04-16 22:12:00,53.0,46.0,30.18,SSW,202,0.0,6.0,76,0.00,,,0.00,,2013-04-17 02:12:00,
2013-04-16 22:22:00,53.0,46.0,30.18,SW,225,0.0,7.0,76,0.00,,,0.00,,2013-04-17 02:22:00,
2013-04-16 22:32:00,53.0,46.0,30.18,SW,225,0.0,8.0,76,0.00,,,0.00,,2013-04-17 02:32:00,
2013-04-16 22:42:00,53.0,46.0,30.18,SW,225,0.0,8.0,76,0.00,,,0.00,,2013-04-17 02:42:00,
2013-04-16 22:52:00,53.0,46.0,30.15,SSW,202,3.0,7.0,76,0.00,,,0.00,,2013-04-17 02:52:00,
2013-04-16 23:02:00,53.0,46.0,30.15,South,180,5.0,5.0,76,0.00,,,0.00,,2013-04-17 03:02:00,
2013-04-16 23:12:00,53.0,46.0,30.15,South,180,5.0,5.0,76,0.00,,,0.00,,2013-04-17 03:12:00,
2013-04-16 23:22:00,54.0,47.0,30.15,WSW,248,0.0,4.0,76,0.00,,,0.00,,2013-04-17 03:22:00,
2013-04-16 23:33:00,54.0,47.0,30.15,SSW,202,3.0,6.0,77,0.00,,,0.00,,2013-04-17 03:33:00,
2013-04-16 23:42:00,54.0,47.0,30.15,SSW,202,3.0,6.0,77,0.00,,,0.00,,2013-04-17 03:42:00,
2013-04-16 23:53:00,54.0,47.0,30.15,SW,225,0.0,9.0,77,0.00,,,0.00,,2013-04-17 03:53:00,